Time;durP1;ratioP1;P1;durP2;ratioP2;P2;SDS_P1;SDS_P2;PMS_P1;PMS_P2;Temp;Humidity;BMP_temperature;BMP_pressure;BME280_temperature;BME280_humidity;BME280_pressure;Samples;Min_cycle;Max_cycle;Signal;HPM_P1;HPM_P2
2024/03/20 00:00:54;;;;;;;23.10;14.30;;;;;;;4.36;100.00;99877.36;108251;1253;60984;-57
2024/03/20 00:03:21;;;;;;;20.20;14.70;;;;;;;4.39;100.00;99880.61;108244;1254;60720;-57
2024/03/20 00:05:49;;;;;;;;;;;;;;;4.42;100.00;99876.74;108306;1254;74506;-57
2024/03/20 00:08:16;;;;;;;17.50;13.20;;;;;;;4.39;100.00;99876.96;108290;1253;69406;-57
2024/03/20 00:10:45;;;;;;;19.00;14.40;;;;;;;4.37;100.00;99876.83;108293;1253;72523;-57
2024/03/20 00:13:13;;;;;;;18.50;13.10;;;;;;;4.34;100.00;99876.70;108289;1253;59647;-57
2024/03/20 00:15:41;;;;;;;20.10;14.20;;;;;;;4.31;100.00;99872.58;107884;1251;59315;-58
2024/03/20 00:18:08;;;;;;;18.90;13.60;;;;;;;4.30;100.00;99871.19;108458;1253;74489;-57
2024/03/20 00:20:36;;;;;;;16.60;13.80;;;;;;;4.29;100.00;99863.39;108107;1252;69109;-58
2024/03/20 00:23:03;;;;;;;20.20;14.60;;;;;;;4.29;100.00;99860.09;108307;1253;72212;-57
2024/03/20 00:25:31;;;;;;;20.60;14.50;;;;;;;4.27;100.00;99855.77;108003;1253;60573;-57
2024/03/20 00:27:58;;;;;;;20.00;14.50;;;;;;;4.30;100.00;99853.31;108266;1253;59278;-58
2024/03/20 00:30:26;;;;;;;18.30;13.90;;;;;;;4.30;100.00;99851.23;108263;1253;73235;-58
2024/03/20 00:32:54;;;;;;;20.50;14.20;;;;;;;4.28;100.00;99852.30;108239;1253;69355;-57
2024/03/20 00:35:21;;;;;;;17.30;13.80;;;;;;;4.28;100.00;99854.73;108295;1253;72908;-57
2024/03/20 00:37:49;;;;;;;21.80;15.30;;;;;;;4.32;100.00;99850.34;108149;1253;61196;-57
2024/03/20 00:40:17;;;;;;;20.20;14.00;;;;;;;4.22;100.00;99847.00;108249;1253;59645;-57
2024/03/20 00:42:44;;;;;;;24.10;15.20;;;;;;;4.20;100.00;99844.77;108335;1253;74381;-57
2024/03/20 00:45:12;;;;;;;21.30;15.50;;;;;;;4.18;100.00;99843.59;108310;1252;69983;-57
2024/03/20 00:47:39;;;;;;;;;;;;;;;4.13;100.00;99841.40;108324;1253;71809;-58
2024/03/20 00:50:07;;;;;;;21.70;14.60;;;;;;;4.11;100.00;99839.16;108291;1253;60803;-58
2024/03/20 00:52:35;;;;;;;22.70;16.40;;;;;;;4.12;100.00;99840.36;108289;1253;60230;-57
2024/03/20 00:55:14;;;;;;;29.50;16.70;;;;;;;4.13;100.00;99843.66;108314;1253;74993;-57
2024/03/20 00:57:43;;;;;;;27.70;18.20;;;;;;;4.11;100.00;99843.34;108301;1253;69753;-57
2024/03/20 01:00:11;;;;;;;27.50;17.50;;;;;;;4.09;100.00;99846.14;108280;1253;72375;-58
2024/03/20 01:02:38;;;;;;;;;;;;;;;4.08;100.00;99847.18;108271;1253;61553;-58
2024/03/20 01:05:05;;;;;;;25.20;17.00;;;;;;;4.04;100.00;99847.77;108202;1253;61414;-57
2024/03/20 01:07:33;;;;;;;25.90;17.60;;;;;;;3.99;100.00;99851.46;108254;1253;74886;-57
2024/03/20 01:10:00;;;;;;;26.00;17.70;;;;;;;4.03;100.00;99850.56;108141;1253;69003;-57
2024/03/20 01:12:28;;;;;;;29.10;19.00;;;;;;;4.06;100.00;99849.98;108306;1253;72542;-57
2024/03/20 01:14:56;;;;;;;28.50;19.20;;;;;;;4.06;100.00;99848.95;108226;1252;61133;-61
2024/03/20 01:17:24;;;;;;;26.50;18.30;;;;;;;4.03;100.00;99844.83;108218;1253;59748;-57
2024/03/20 01:19:51;;;;;;;27.30;18.80;;;;;;;3.99;100.00;99843.15;108287;1253;74462;-58
2024/03/20 01:22:19;;;;;;;28.40;18.90;;;;;;;3.92;100.00;99840.97;108275;1253;70291;-58
2024/03/20 01:24:46;;;;;;;25.70;17.90;;;;;;;3.86;100.00;99838.46;108287;1253;73315;-58
2024/03/20 01:27:14;;;;;;;24.80;17.50;;;;;;;3.79;100.00;99838.20;108224;1253;60371;-57
2024/03/20 01:29:41;;;;;;;27.90;19.10;;;;;;;3.72;100.00;99834.63;108258;1253;59786;-57
2024/03/20 01:32:08;;;;;;;26.10;18.00;;;;;;;3.61;100.00;99824.53;108094;1255;73906;-58
2024/03/20 01:34:36;;;;;;;27.70;19.40;;;;;;;3.67;100.00;99835.55;108172;1253;70226;-57
2024/03/20 01:37:03;;;;;;;26.00;18.60;;;;;;;3.60;100.00;99833.20;108104;1254;72753;-57
2024/03/20 01:39:31;;;;;;;26.00;17.40;;;;;;;3.51;100.00;99837.64;108119;1254;60784;-57
2024/03/20 01:41:59;;;;;;;27.10;17.80;;;;;;;3.49;100.00;99834.02;108143;1253;59848;-58
2024/03/20 01:44:27;;;;;;;28.30;18.70;;;;;;;3.44;100.00;99837.37;108169;1253;75306;-57
2024/03/20 01:46:54;;;;;;;30.10;19.20;;;;;;;3.39;100.00;99835.00;107797;1254;69209;-57
2024/03/20 01:49:21;;;;;;;30.70;20.00;;;;;;;3.35;100.00;99831.74;108101;1253;73434;-59
2024/03/20 01:51:50;;;;;;;;;;;;;;;3.29;100.00;99829.03;108130;1253;60598;-58
2024/03/20 01:54:17;;;;;;;32.40;19.40;;;;;;;3.23;100.00;99829.45;108199;1253;59958;-57
2024/03/20 01:56:45;;;;;;;29.60;19.70;;;;;;;3.16;100.00;99828.11;107593;1253;74412;-57
2024/03/20 01:59:13;;;;;;;32.40;20.90;;;;;;;3.09;100.00;99822.47;108115;1253;69301;-57
2024/03/20 02:01:41;;;;;;;26.50;18.80;;;;;;;3.08;100.00;99821.79;108175;1253;71343;-57
2024/03/20 02:04:08;;;;;;;27.60;19.20;;;;;;;3.04;100.00;99817.33;108146;1253;60641;-57
2024/03/20 02:06:35;;;;;;;;;;;;;;;3.04;100.00;99815.59;108000;1252;60924;-57
2024/03/20 02:09:07;;;;;;;27.70;19.00;;;;;;;3.03;100.00;99814.56;108166;1253;76496;-58
2024/03/20 02:11:34;;;;;;;33.80;21.10;;;;;;;3.01;100.00;99814.92;107829;1253;70044;-57
2024/03/20 02:14:03;;;;;;;33.50;20.40;;;;;;;2.99;100.00;99812.86;108159;1253;72492;-57
2024/03/20 02:16:30;;;;;;;34.00;21.00;;;;;;;2.99;100.00;99810.96;108078;1254;60646;-57
2024/03/20 02:18:58;;;;;;;;;;;;;;;2.96;100.00;99812.72;108160;1253;59763;-58
2024/03/20 02:21:25;;;;;;;30.70;18.90;;;;;;;2.97;100.00;99819.81;107948;1253;74386;-58
2024/03/20 02:23:53;;;;;;;26.40;18.40;;;;;;;2.97;100.00;99817.91;108134;1253;71824;-58
2024/03/20 02:26:20;;;;;;;27.50;18.00;;;;;;;3.02;100.00;99814.22;108150;1254;72603;-57
2024/03/20 02:28:48;;;;;;;;;;;;;;;3.07;100.00;99814.52;108197;1253;63127;-56
2024/03/20 02:31:15;;;;;;;;;;;;;;;3.11;100.00;99819.00;107966;1253;60443;-57
2024/03/20 02:33:43;;;;;;;27.80;15.70;;;;;;;3.18;100.00;99822.57;108256;1253;77870;-56
2024/03/20 02:36:11;;;;;;;;;;;;;;;3.26;100.00;99824.56;108206;1253;69040;-56
2024/03/20 02:38:39;;;;;;;30.00;16.10;;;;;;;3.28;100.00;99824.71;108279;1253;74725;-57
2024/03/20 02:41:06;;;;;;;24.10;15.00;;;;;;;3.29;100.00;99828.17;108016;1255;60730;-57
2024/03/20 02:43:34;;;;;;;21.20;15.10;;;;;;;3.35;100.00;99835.20;108204;1253;60120;-57
2024/03/20 02:46:02;;;;;;;20.70;14.60;;;;;;;3.38;100.00;99836.57;108271;1253;74466;-58
2024/03/20 02:48:29;;;;;;;;;;;;;;;3.42;100.00;99841.20;108276;1253;69596;-58
2024/03/20 02:50:57;;;;;;;;;;;;;;;3.44;100.00;99839.79;108348;1252;71939;-58
2024/03/20 02:53:24;;;;;;;;;;;;;;;3.49;100.00;99841.30;108226;1253;61601;-59
2024/03/20 02:55:51;;;;;;;17.80;11.70;;;;;;;3.49;100.00;99835.91;108285;1252;59525;-58
2024/03/20 02:58:19;;;;;;;18.90;12.80;;;;;;;3.53;100.00;99836.58;108252;1253;74412;-57
2024/03/20 03:00:46;;;;;;;17.20;12.70;;;;;;;3.55;100.00;99834.48;108297;1253;71400;-58
2024/03/20 03:03:14;;;;;;;26.20;13.60;;;;;;;3.55;100.00;99832.73;108296;1253;72550;-58
2024/03/20 03:05:42;;;;;;;19.10;12.70;;;;;;;3.53;100.00;99831.39;108230;1251;60663;-57
2024/03/20 03:08:09;;;;;;;19.30;13.40;;;;;;;3.52;100.00;99831.90;108134;1253;60136;-57
2024/03/20 03:10:37;;;;;;;17.50;12.60;;;;;;;3.55;100.00;99829.97;108305;1251;74561;-57
2024/03/20 03:13:04;;;;;;;22.00;12.90;;;;;;;3.56;100.00;99833.61;108296;1252;69046;-57
2024/03/20 03:15:33;;;;;;;19.00;12.40;;;;;;;3.56;100.00;99836.20;108304;1253;73385;-57
2024/03/20 03:18:01;;;;;;;17.10;12.70;;;;;;;3.55;100.00;99836.91;108259;1253;59469;-57
2024/03/20 03:20:29;;;;;;;18.50;12.90;;;;;;;3.55;100.00;99838.62;108316;1253;59830;-57
2024/03/20 03:22:56;;;;;;;20.20;13.50;;;;;;;3.56;100.00;99836.38;108167;1252;75387;-57
2024/03/20 03:25:24;;;;;;;19.50;13.40;;;;;;;3.56;100.00;99838.27;108242;1253;69451;-57
2024/03/20 03:27:52;;;;;;;21.80;14.00;;;;;;;3.59;100.00;99841.54;108219;1253;72922;-57
2024/03/20 03:30:19;;;;;;;19.80;14.30;;;;;;;3.55;100.00;99845.91;108085;1253;60192;-58
2024/03/20 03:32:47;;;;;;;19.50;13.80;;;;;;;3.52;100.00;99847.67;108254;1253;59928;-57
2024/03/20 03:35:15;;;;;;;23.40;14.10;;;;;;;3.53;100.00;99848.20;108296;1253;75291;-58
2024/03/20 03:37:43;;;;;;;19.20;13.70;;;;;;;3.53;100.00;99848.71;108287;1253;68337;-57
2024/03/20 03:40:11;;;;;;;21.00;13.20;;;;;;;3.55;100.00;99847.48;108112;1253;72917;-57
2024/03/20 03:42:39;;;;;;;20.60;14.50;;;;;;;3.51;100.00;99847.16;108227;1253;60801;-57
2024/03/20 03:45:07;;;;;;;;;;;;;;;3.50;100.00;99845.45;108412;1252;60687;-57
2024/03/20 03:47:34;;;;;;;;;;;;;;;3.52;100.00;99844.03;108270;1253;74580;-57
2024/03/20 03:50:03;;;;;;;18.40;13.40;;;;;;;3.48;100.00;99848.06;108351;1253;69131;-57
2024/03/20 03:52:31;;;;;;;19.00;14.10;;;;;;;3.45;100.00;99850.69;108188;1253;72487;-57
2024/03/20 03:54:58;;;;;;;20.40;14.20;;;;;;;3.46;100.00;99852.60;108344;1253;60538;-57
2024/03/20 03:57:26;;;;;;;18.50;13.30;;;;;;;3.42;100.00;99848.65;108120;1253;60903;-58
2024/03/20 03:59:54;;;;;;;;;;;;;;;3.44;100.00;99850.71;108032;1253;74385;-58
2024/03/20 04:02:21;;;;;;;16.90;13.20;;;;;;;3.46;100.00;99853.45;108226;1252;69165;-57
2024/03/20 04:04:49;;;;;;;;;;;;;;;3.47;100.00;99852.94;108374;1252;72464;-57
2024/03/20 04:07:17;;;;;;;18.70;12.40;;;;;;;3.50;100.00;99853.94;108312;1252;60596;-58
2024/03/20 04:09:44;;;;;;;;;;;;;;;3.40;100.00;99841.40;108274;1253;59969;-59
2024/03/20 04:12:12;;;;;;;14.90;11.10;;;;;;;3.35;100.00;99843.36;108277;1252;74375;-57
2024/03/20 04:14:39;;;;;;;15.80;11.60;;;;;;;3.31;100.00;99840.29;108360;1253;70577;-57
2024/03/20 04:17:07;;;;;;;17.90;11.60;;;;;;;3.26;100.00;99840.67;108311;1252;71973;-57
2024/03/20 04:19:34;;;;;;;;;;;;;;;3.21;100.00;99845.56;108346;1253;60697;-57
2024/03/20 04:22:02;;;;;;;15.00;11.20;;;;;;;3.21;100.00;99847.13;108307;1252;59730;-57
2024/03/20 04:24:30;;;;;;;16.00;11.90;;;;;;;3.26;100.00;99847.25;108145;1252;74485;-57
2024/03/20 04:26:57;;;;;;;13.10;11.30;;;;;;;3.31;100.00;99848.94;108249;1253;70144;-57
2024/03/20 04:29:25;;;;;;;13.60;11.10;;;;;;;3.35;100.00;99850.81;108139;1253;72342;-58
2024/03/20 04:31:53;;;;;;;15.00;10.00;;;;;;;3.43;100.00;99851.78;108233;1253;60688;-58
2024/03/20 04:34:21;;;;;;;14.80;11.20;;;;;;;3.40;100.00;99851.27;108226;1253;60007;-57
2024/03/20 04:36:48;;;;;;;17.10;11.50;;;;;;;3.40;100.00;99857.86;108223;1253;74871;-56
2024/03/20 04:39:17;;;;;;;14.20;12.10;;;;;;;3.46;100.00;99859.00;108023;1253;69136;-57
2024/03/20 04:41:47;;;;;;;14.70;12.20;;;;;;;3.45;100.00;99861.80;108043;1253;73395;-59
2024/03/20 04:44:15;;;;;;;17.40;11.20;;;;;;;3.44;100.00;99867.16;108307;1252;60231;-59
2024/03/20 04:46:42;;;;;;;18.90;12.90;;;;;;;3.47;100.00;99875.64;107117;1251;1529336;-58
2024/03/20 04:50:17;;;;;;;16.40;11.50;;;;;;;3.19;100.00;99886.42;102067;1290;601286;-60
2024/03/20 04:52:44;;;;;;;16.50;12.70;;;;;;;3.85;100.00;99883.21;104189;1266;59816;-59
2024/03/20 04:55:12;;;;;;;25.00;12.70;;;;;;;3.95;100.00;99885.52;103938;1269;59825;-60
2024/03/20 04:57:40;;;;;;;;;;;;;;;3.99;100.00;99888.23;104049;1265;72875;-61
2024/03/20 05:00:15;;;;;;;15.90;12.90;;;;;;;4.01;100.00;99894.99;103991;1263;69530;-56
2024/03/20 05:02:44;;;;;;;17.30;12.50;;;;;;;4.04;100.00;99896.67;104142;1271;593390;-62
2024/03/20 05:05:12;;;;;;;20.40;13.90;;;;;;;4.06;100.00;99896.30;104980;1259;59857;-60
2024/03/20 05:07:42;;;;;;;21.10;13.70;;;;;;;4.07;100.00;99891.09;105196;1260;60053;-58
2024/03/20 05:10:11;;;;;;;22.00;13.10;;;;;;;4.02;100.00;99891.16;104594;1264;74917;-59
2024/03/20 05:12:39;;;;;;;15.80;12.10;;;;;;;4.06;100.00;99888.86;104054;1264;69675;-59
2024/03/20 05:15:06;;;;;;;;;;;;;;;4.15;100.00;99885.09;104038;1263;73323;-58
2024/03/20 05:17:34;;;;;;;16.20;11.80;;;;;;;4.21;100.00;99889.36;103950;1276;60684;-62
2024/03/20 05:20:05;;;;;;;13.40;11.00;;;;;;;4.25;100.00;99898.84;104334;1265;60574;-58
2024/03/20 05:22:32;;;;;;;29.70;13.00;;;;;;;4.32;100.00;99903.45;104004;1264;74054;-59
2024/03/20 05:25:00;;;;;;;24.80;12.10;;;;;;;4.33;100.00;99905.50;104134;1263;69023;-62
2024/03/20 05:27:27;;;;;;;18.00;12.20;;;;;;;4.29;100.00;99908.16;103958;1267;74359;-59
2024/03/20 05:29:55;;;;;;;17.20;13.10;;;;;;;4.27;100.00;99913.55;104111;1271;62424;-59
2024/03/20 05:32:23;;;;;;;29.90;13.00;;;;;;;4.24;100.00;99915.52;104493;1254;60700;-58
2024/03/20 05:34:50;;;;;;;;;;;;;;;4.23;100.00;99912.41;104314;1260;72987;-57
2024/03/20 05:37:18;;;;;;;15.70;11.90;;;;;;;4.26;100.00;99905.61;104504;1256;70055;-58
2024/03/20 05:39:46;;;;;;;21.80;13.10;;;;;;;4.33;100.00;99903.09;104612;1259;71393;-58
2024/03/20 05:42:14;;;;;;;26.30;12.70;;;;;;;4.30;100.00;99903.29;104406;1253;60586;-58
2024/03/20 05:44:41;;;;;;;31.00;13.60;;;;;;;4.29;100.00;99904.17;104561;1254;60465;-61
2024/03/20 05:47:09;;;;;;;16.40;11.70;;;;;;;4.20;100.00;99906.38;104587;1259;72580;-57
2024/03/20 05:49:36;;;;;;;20.60;13.30;;;;;;;4.33;100.00;99908.98;104603;1258;70016;-61
2024/03/20 05:52:03;;;;;;;19.10;13.90;;;;;;;4.34;100.00;99910.01;104787;1257;72388;-60
2024/03/20 05:54:35;;;;;;;23.10;14.40;;;;;;;4.36;100.00;99911.55;104253;1256;60722;-63
2024/03/20 05:57:03;;;;;;;19.60;13.60;;;;;;;4.39;100.00;99910.64;104018;1262;60479;-57
2024/03/20 05:59:32;;;;;;;21.40;14.50;;;;;;;4.42;100.00;99902.96;104906;1256;73705;-59
2024/03/20 06:01:59;;;;;;;18.60;13.20;;;;;;;4.46;100.00;99903.27;104983;1256;70000;-60
2024/03/20 06:04:27;;;;;;;16.30;13.50;;;;;;;4.53;100.00;99897.79;104054;1276;73517;-59
2024/03/20 06:06:54;;;;;;;23.20;14.30;;;;;;;4.65;100.00;99893.80;104781;1259;60745;-60
2024/03/20 06:09:24;;;;;;;18.20;13.90;;;;;;;4.74;100.00;99894.17;104402;1275;60582;-60
2024/03/20 06:11:52;;;;;;;17.40;13.60;;;;;;;4.66;100.00;99898.12;104057;1259;75664;-60
2024/03/20 06:14:19;;;;;;;18.50;13.80;;;;;;;4.87;100.00;99899.38;105145;1259;69078;-60
2024/03/20 06:16:47;;;;;;;18.70;14.20;;;;;;;4.98;100.00;99900.41;104406;1275;72486;-59
2024/03/20 06:19:15;;;;;;;19.20;14.00;;;;;;;5.01;100.00;99897.76;104475;1255;60656;-58
2024/03/20 06:21:42;;;;;;;18.40;12.90;;;;;;;5.03;100.00;99898.93;104143;1263;60559;-59
2024/03/20 06:24:09;;;;;;;20.60;15.20;;;;;;;5.05;100.00;99894.57;104191;1260;73662;-59
2024/03/20 06:26:37;;;;;;;16.30;13.90;;;;;;;5.12;100.00;99890.80;104425;1260;69348;-59
2024/03/20 06:29:05;;;;;;;19.00;14.50;;;;;;;5.17;100.00;99887.94;104200;1268;72564;-60
2024/03/20 06:31:35;;;;;;;16.70;14.00;;;;;;;5.22;100.00;99890.13;104401;1272;61693;-60
2024/03/20 06:34:03;;;;;;;21.00;14.40;;;;;;;5.27;100.00;99894.54;104666;1251;60562;-60
2024/03/20 06:36:32;;;;;;;20.60;15.30;;;;;;;5.32;100.00;99894.81;104602;1258;73650;-60
2024/03/20 06:39:00;;;;;;;21.40;15.30;;;;;;;5.43;100.00;99890.43;104499;1251;72248;-59
2024/03/20 06:41:28;;;;;;;19.70;14.90;;;;;;;5.50;100.00;99894.83;105134;1254;72482;-60
2024/03/20 06:43:56;;;;;;;18.60;15.00;;;;;;;5.63;100.00;99903.83;105014;1255;61663;-61
2024/03/20 06:46:25;;;;;;;20.40;14.30;;;;;;;5.74;100.00;99910.23;104425;1260;60463;-60
2024/03/20 06:48:54;;;;;;;24.40;16.10;;;;;;;5.75;100.00;99912.81;104597;1268;73621;-60
2024/03/20 06:51:22;;;;;;;19.10;14.70;;;;;;;5.76;100.00;99912.27;104705;1259;70102;-61
2024/03/20 06:53:51;;;;;;;21.40;15.60;;;;;;;5.83;100.00;99912.66;104633;1258;72546;-59
2024/03/20 06:56:20;;;;;;;25.00;15.00;;;;;;;5.94;100.00;99922.38;104866;1257;60851;-58
2024/03/20 06:58:47;;;;;;;19.90;14.40;;;;;;;6.03;100.00;99924.14;104879;1254;60460;-59
2024/03/20 07:01:15;;;;;;;17.40;13.60;;;;;;;6.11;100.00;99922.43;105561;1259;73025;-58
2024/03/20 07:03:42;;;;;;;17.20;13.90;;;;;;;6.17;100.00;99922.48;105111;1253;71857;-61
2024/03/20 07:06:11;;;;;;;16.90;13.30;;;;;;;6.12;100.00;99908.98;104810;1255;74935;-59
2024/03/20 07:08:38;;;;;;;;;;;;;;;6.29;100.00;99925.54;105227;1256;61895;-58
2024/03/20 07:11:06;;;;;;;13.00;10.40;;;;;;;6.37;100.00;99925.72;104842;1257;59540;-61
2024/03/20 07:13:34;;;;;;;12.30;10.70;;;;;;;6.46;100.00;99923.27;104658;1253;75679;-60
2024/03/20 07:16:02;;;;;;;12.10;10.50;;;;;;;6.51;100.00;99922.30;105038;1259;70612;-59
2024/03/20 07:18:29;;;;;;;15.20;10.70;;;;;;;6.56;100.00;99921.47;105077;1258;73369;-58
2024/03/20 07:20:56;;;;;;;11.00;9.90;;;;;;;6.63;100.00;99919.76;105012;1253;60666;-60
2024/03/20 07:23:25;;;;;;;11.30;9.60;;;;;;;6.74;100.00;99924.91;104361;1269;62085;-61
2024/03/20 07:25:53;;;;;;;10.50;8.80;;;;;;;6.81;100.00;99928.05;105194;1254;74000;-58
2024/03/20 07:28:21;;;;;;;10.40;9.30;;;;;;;6.89;100.00;99924.41;104809;1256;70595;-60
2024/03/20 07:30:48;;;;;;;;;;;;;;;6.91;100.00;99919.13;104638;1261;75199;-60
2024/03/20 07:33:16;;;;;;;;;;;;;;;6.98;100.00;99923.31;104707;1257;60728;-60
2024/03/20 07:35:44;;;;;;;;;;;;;;;6.99;100.00;99922.59;104767;1257;60481;-61
2024/03/20 07:38:13;;;;;;;10.20;9.10;;;;;;;6.98;100.00;99917.41;104326;1262;75306;-59
2024/03/20 07:40:41;;;;;;;10.60;9.60;;;;;;;6.99;100.00;99922.42;104564;1259;69320;-60
2024/03/20 07:43:10;;;;;;;10.50;9.40;;;;;;;7.06;100.00;99925.39;104891;1254;72536;-60
2024/03/20 07:45:38;;;;;;;11.40;9.80;;;;;;;7.06;100.00;99926.80;104392;1261;61319;-60
2024/03/20 07:48:06;;;;;;;10.40;9.30;;;;;;;7.06;100.00;99926.97;104599;1251;60438;-61
2024/03/20 07:50:34;;;;;;;13.90;8.50;;;;;;;7.03;100.00;99925.47;104576;1252;73933;-61
2024/03/20 07:53:01;;;;;;;9.90;8.60;;;;;;;7.03;100.00;99928.59;104687;1257;69337;-61
2024/03/20 07:55:29;;;;;;;9.10;8.20;;;;;;;7.07;100.00;99922.07;104667;1259;71471;-62
2024/03/20 07:57:57;;;;;;;8.20;7.50;;;;;;;7.06;100.00;99926.44;104102;1251;61183;-60
2024/03/20 08:00:31;;;;;;;8.80;8.00;;;;;;;7.08;100.00;99924.81;104442;1258;60859;-61
2024/03/20 08:02:59;;;;;;;7.90;7.10;;;;;;;7.11;100.00;99926.51;104869;1251;73647;-62
2024/03/20 08:05:27;;;;;;;8.20;7.50;;;;;;;7.12;100.00;99925.23;104059;1269;72834;-60
2024/03/20 08:07:55;;;;;;;8.00;7.30;;;;;;;7.15;100.00;99919.95;104465;1270;72479;-60
2024/03/20 08:10:24;;;;;;;7.10;6.50;;;;;;;7.19;100.00;99918.27;104546;1255;61275;-60
2024/03/20 08:12:52;;;;;;;7.20;6.50;;;;;;;7.24;100.00;99917.80;104449;1263;61966;-60
2024/03/20 08:15:20;;;;;;;6.70;6.10;;;;;;;7.29;100.00;99904.08;104559;1254;73706;-61
2024/03/20 08:17:48;;;;;;;6.70;6.20;;;;;;;7.37;100.00;99901.62;104887;1256;68390;-62
2024/03/20 08:20:16;;;;;;;6.20;5.70;;;;;;;7.47;100.00;99901.87;104428;1261;75006;-58
2024/03/20 08:22:46;;;;;;;7.30;6.60;;;;;;;7.57;100.00;99904.23;104969;1257;61994;-59
2024/03/20 08:25:14;;;;;;;7.60;6.90;;;;;;;7.62;100.00;99900.80;104921;1255;60544;-60
2024/03/20 08:27:42;;;;;;;7.70;7.00;;;;;;;7.68;100.00;99900.48;104799;1260;73708;-59
2024/03/20 08:30:13;;;;;;;7.80;7.00;;;;;;;7.78;100.00;99902.81;104861;1257;68589;-60
2024/03/20 08:32:41;;;;;;;7.60;6.80;;;;;;;7.84;100.00;99898.65;105006;1252;73386;-62
2024/03/20 08:35:12;;;;;;;6.20;5.70;;;;;;;7.83;100.00;99898.30;104701;1260;62855;-59
2024/03/20 08:37:40;;;;;;;6.80;6.20;;;;;;;7.88;100.00;99897.11;104796;1257;60403;-61
2024/03/20 08:40:09;;;;;;;7.10;6.50;;;;;;;7.92;100.00;99900.86;105564;1251;73017;-59
2024/03/20 08:42:37;;;;;;;7.00;6.30;;;;;;;7.99;100.00;99899.77;104592;1259;68525;-58
2024/03/20 08:45:05;;;;;;;7.30;6.30;;;;;;;8.03;100.00;99901.27;104375;1266;72493;-60
2024/03/20 08:47:34;;;;;;;7.10;6.40;;;;;;;7.98;100.00;99900.50;104630;1256;60910;-58
2024/03/20 08:50:02;;;;;;;7.00;6.40;;;;;;;7.96;100.00;99902.50;104664;1254;60730;-61
2024/03/20 08:52:30;;;;;;;7.60;6.40;;;;;;;7.93;100.00;99907.80;104552;1256;73942;-59
2024/03/20 08:54:58;;;;;;;6.90;6.30;;;;;;;7.95;100.00;99912.98;104639;1261;69391;-59
2024/03/20 08:57:26;;;;;;;7.30;6.60;;;;;;;8.00;100.00;99916.86;104399;1269;72555;-60
2024/03/20 08:59:53;;;;;;;7.10;6.40;;;;;;;8.01;100.00;99918.92;105328;1259;60967;-63
2024/03/20 09:02:22;;;;;;;8.20;6.60;;;;;;;7.83;100.00;99914.35;104407;1261;61241;-61
2024/03/20 09:04:50;;;;;;;9.50;7.50;;;;;;;7.73;100.00;99914.27;104429;1258;76580;-60
2024/03/20 09:07:18;;;;;;;11.20;7.80;;;;;;;7.64;100.00;99915.05;105431;1256;69342;-59
2024/03/20 09:09:45;;;;;;;8.30;7.30;;;;;;;7.58;100.00;99915.02;104890;1253;73299;-59
2024/03/20 09:12:13;;;;;;;8.30;7.50;;;;;;;7.58;100.00;99913.98;104536;1259;61381;-59
2024/03/20 09:14:40;;;;;;;8.20;7.40;;;;;;;7.64;100.00;99913.30;104408;1272;61360;-59
2024/03/20 09:17:08;;;;;;;8.90;8.00;;;;;;;7.74;100.00;99913.40;104602;1256;75095;-59
2024/03/20 09:19:36;;;;;;;10.10;8.40;;;;;;;7.77;100.00;99909.64;104647;1259;69533;-59
2024/03/20 09:22:04;;;;;;;11.00;8.60;;;;;;;7.76;100.00;99906.86;104518;1269;72463;-59
2024/03/20 09:24:31;;;;;;;10.20;9.00;;;;;;;7.78;100.00;99906.84;104426;1256;61672;-59
2024/03/20 09:26:59;;;;;;;12.40;8.60;;;;;;;7.78;100.00;99906.48;104374;1256;61244;-60
2024/03/20 09:29:29;;;;;;;10.90;9.40;;;;;;;7.78;100.00;99905.61;104539;1259;73705;-59
2024/03/20 09:31:57;;;;;;;9.80;8.40;;;;;;;7.78;100.00;99904.55;104447;1272;68592;-61
2024/03/20 09:34:24;;;;;;;9.90;8.60;;;;;;;7.72;100.00;99905.94;104563;1251;75623;-59
2024/03/20 09:36:55;;;;;;;9.40;8.40;;;;;;;7.67;100.00;99905.71;104542;1256;61249;-59
2024/03/20 09:39:23;;;;;;;9.80;8.70;;;;;;;7.65;100.00;99909.26;104614;1252;61279;-59
2024/03/20 09:41:51;;;;;;;;;;;;;;;7.66;100.00;99909.05;104639;1256;73895;-59
2024/03/20 09:44:18;;;;;;;11.20;9.30;;;;;;;7.58;100.00;99915.39;104580;1272;69512;-57
2024/03/20 09:46:47;;;;;;;13.10;9.50;;;;;;;7.48;100.00;99916.70;104547;1258;73319;-58
2024/03/20 09:49:14;;;;;;;10.90;9.60;;;;;;;7.41;100.00;99919.66;104601;1257;61786;-58
2024/03/20 09:51:42;;;;;;;12.60;10.10;;;;;;;7.34;100.00;99922.26;104566;1253;61255;-58
2024/03/20 09:54:09;;;;;;;11.00;9.80;;;;;;;7.34;100.00;99914.94;104668;1260;74441;-58
2024/03/20 09:56:37;;;;;;;14.60;9.80;;;;;;;7.37;100.00;99919.05;104571;1259;69248;-58
2024/03/20 09:59:07;;;;;;;13.50;9.10;;;;;;;7.33;100.00;99916.53;104811;1257;72760;-59
2024/03/20 10:01:35;;;;;;;13.50;10.00;;;;;;;7.31;100.00;99922.16;104506;1254;61688;-61
2024/03/20 10:04:06;;;;;;;11.90;10.30;;;;;;;7.28;100.00;99918.94;105347;1256;61322;-59
2024/03/20 10:06:39;;;;;;;10.80;9.40;;;;;;;7.20;100.00;99915.63;104827;1251;73688;-60
2024/03/20 10:09:10;;;;;;;10.50;8.90;;;;;;;7.17;100.00;99914.49;105302;1253;72769;-59
2024/03/20 10:11:37;;;;;;;9.40;8.50;;;;;;;7.24;100.00;99913.98;104908;1253;71817;-59
2024/03/20 10:14:04;;;;;;;9.90;8.70;;;;;;;7.33;100.00;99909.92;104847;1253;61845;-58
2024/03/20 10:16:32;;;;;;;10.70;9.00;;;;;;;7.31;100.00;99905.60;104694;1253;61305;-59
2024/03/20 10:19:00;;;;;;;10.50;8.80;;;;;;;7.25;100.00;99905.41;104773;1256;75734;-59
2024/03/20 10:21:27;;;;;;;9.40;8.40;;;;;;;7.24;100.00;99906.64;105112;1252;69433;-59
2024/03/20 10:23:55;;;;;;;;;;;;;;;7.32;100.00;99908.54;105209;1253;73181;-59
2024/03/20 10:26:22;;;;;;;9.00;8.10;;;;;;;7.37;100.00;99905.62;104510;1269;61437;-59
2024/03/20 10:28:50;;;;;;;9.70;8.70;;;;;;;7.48;100.00;99909.71;104860;1256;61239;-58
2024/03/20 10:31:21;;;;;;;9.50;8.30;;;;;;;7.54;100.00;99904.48;104717;1260;75120;-59
2024/03/20 10:33:57;;;;;;;10.60;8.60;;;;;;;7.58;100.00;99899.14;104764;1256;69710;-59
2024/03/20 10:36:24;;;;;;;12.10;9.70;;;;;;;7.55;100.00;99892.79;105384;1258;72784;-59
2024/03/20 10:38:52;;;;;;;10.40;9.10;;;;;;;7.53;100.00;99890.22;104792;1259;61809;-59
2024/03/20 10:41:19;;;;;;;11.40;8.80;;;;;;;7.61;100.00;99886.51;104652;1259;60913;-58
2024/03/20 10:43:47;;;;;;;10.10;8.10;;;;;;;7.71;100.00;99883.96;105384;1252;75137;-59
2024/03/20 10:46:14;;;;;;;10.30;8.10;;;;;;;7.79;100.00;99876.95;105036;1256;69064;-61
2024/03/20 10:48:42;;;;;;;8.40;7.60;;;;;;;7.85;100.00;99871.91;105367;1256;71858;-59
2024/03/20 10:51:14;;;;;;;8.40;7.60;;;;;;;7.90;100.00;99869.13;104510;1269;61388;-59
2024/03/20 10:53:42;;;;;;;11.50;7.90;;;;;;;7.90;100.00;99869.14;104622;1252;61459;-59
2024/03/20 10:56:18;;;;;;;9.10;7.90;;;;;;;7.85;100.00;99870.85;104795;1258;73615;-59
2024/03/20 10:59:01;;;;;;;10.60;8.10;;;;;;;7.86;100.00;99865.24;104908;1258;70110;-60
2024/03/20 11:01:28;;;;;;;8.20;7.00;;;;;;;7.90;100.00;99869.30;104852;1256;71767;-59
2024/03/20 11:03:56;;;;;;;8.20;6.70;;;;;;;7.96;100.00;99864.27;104735;1257;61329;-59
2024/03/20 11:06:31;;;;;;;7.20;6.30;;;;;;;7.91;100.00;99852.54;105059;1254;61355;-59
2024/03/20 11:09:07;;;;;;;7.60;6.90;;;;;;;8.03;100.00;99860.23;105032;1256;75400;-59
2024/03/20 11:11:35;;;;;;;7.60;6.80;;;;;;;8.04;100.00;99857.76;104614;1252;69957;-59
2024/03/20 11:14:04;;;;;;;8.60;6.90;;;;;;;8.10;100.00;99854.79;104586;1273;72740;-59
2024/03/20 11:16:31;;;;;;;7.60;6.80;;;;;;;8.10;100.00;99851.46;104950;1254;61373;-61
2024/03/20 11:19:03;;;;;;;6.90;6.30;;;;;;;8.10;100.00;99851.11;105137;1257;61301;-60
2024/03/20 11:21:31;;;;;;;6.10;5.50;;;;;;;8.05;100.00;99845.67;104675;1259;74726;-60
2024/03/20 11:24:03;;;;;;;;;;;;;;;8.03;100.00;99849.60;104339;1265;68842;-59
2024/03/20 11:26:31;;;;;;;7.00;5.00;;;;;;;7.95;100.00;99855.04;104574;1269;71584;-58